Papa John — V7TY7 — position and weather

sailwx.info

Track history (hours):
 
Tides and Currents Weather Stations Pressure Air Temp Water Temp Dewpoint Dewpoint Depression Visibility Wind Speed Wind Dir Waves Ship Positions

Papa John

Last reported at 2017-May-24 03:50 UTC. Time now 2017-May-25 05:01 UTC.
Position N 31°02' E 122°13'.

Length 190 m; draft 7.2 m.

Type: Ship. MMSI: 538003908.

Date/timePositionNaut miles runAvg speedWind from/ knotsBaromVisibWave heightAir tempDewpointWater temp
2017-May-24 03:50N 31°02' E 122°13'3 9.5
2017-May-24 03:30N 31°03' E 122°09'511.0
2017-May-24 03:00N 31°04' E 122°03'5 9.2
2017-May-24 02:30N 31°06' E 121°58'5 9.3
2017-May-24 02:01N 31°08' E 121°54'5 9.4
2017-May-24 01:30N 31°12' E 121°50'5 9.8
2017-May-24 01:00N 31°15' E 121°46'5 9.7
2017-May-24 00:29N 31°19' E 121°42'4 8.7
2017-May-24 00:00N 31°22' E 121°38'611.0
2017-May-23 23:30N 31°24' E 121°32'510.0
2017-May-23 23:00N 31°27' E 121°28'611.8
2017-May-23 22:30N 31°31' E 121°23'713.3
2017-May-23 22:00N 31°36' E 121°17'3 4.7
2017-May-23 21:27N 31°38' E 121°15'0 0.1
2017-May-23 21:00N 31°38' E 121°15'0 0.0
2017-May-23 20:30N 31°38' E 121°15'0 0.0
2017-May-23 20:00N 31°38' E 121°15'0 0.0
2017-May-23 19:30N 31°38' E 121°15'0 0.0
2017-May-23 19:00N 31°38' E 121°15'0 0.2
2017-May-23 18:30N 31°38' E 121°15'5 9.5
2017-May-23 18:00N 31°41' E 121°11'510.0
2017-May-23 17:30N 31°44' E 121°06'510.4
2017-May-23 16:59N 31°47' E 121°00'5 9.3
2017-May-23 16:29N 31°48' E 120°55'22 9.7
2017-May-23 14:14N 32°01' E 120°34'  
2017-May-19 19:28N 32°02' E 120°30'36 8.6
2017-May-19 15:18N 31°44' E 121°07'310.0
2017-May-19 15:00N 31°42' E 121°09'1010.2
2017-May-19 14:00N 31°35' E 121°18'5 9.9
2017-May-19 13:30N 31°32' E 121°22'510.5
2017-May-19 13:00N 31°28' E 121°27'3 6.5
2017-May-19 12:30N 31°26' E 121°30'3 6.5
2017-May-19 12:00N 31°24' E 121°33'4 8.9
2017-May-19 11:30N 31°22' E 121°37'510.5
2017-May-19 11:00N 31°20' E 121°43'510.2
2017-May-19 10:30N 31°17' E 121°48'510.4
2017-May-19 10:00N 31°16' E 121°54'510.9
2017-May-19 09:30N 31°15' E 122°00'510.6
2017-May-19 09:00N 31°14' E 122°06'611.6
2017-May-19 08:30N 31°10' E 122°12'713.2
2017-May-19 08:00N 31°06' E 122°18'611.2
2017-May-19 07:30N 31°07' E 122°25'4 7.3
2017-May-19 06:57N 31°07' E 122°29'3 6.3
2017-May-19 06:30N 31°07' E 122°33'4 7.1
2017-May-19 05:59N 31°07' E 122°37'11 2.9
2017-May-19 02:18N 31°15' E 122°44'712.3
2017-May-19 01:43N 31°22' E 122°45'512.5
2017-May-19 01:20N 31°27' E 122°45'612.6
2017-May-19 00:52N 31°33' E 122°46'412.2
2017-May-19 00:30N 31°38' E 122°47'1111.9
2017-May-18 23:34N 31°49' E 122°49'111.7
2017-May-18 23:29N 31°50' E 122°49'1211.7
2017-May-18 22:26N 32°02' E 122°51'511.7
2017-May-18 22:00N 32°07' E 122°52'611.6
2017-May-18 21:30N 32°12' E 122°53'611.7
2017-May-18 21:00N 32°18' E 122°53'711.9
2017-May-18 20:26N 32°25' E 122°55'1211.9
2017-May-18 19:27N 32°37' E 122°56'2912.7
2017-May-18 17:09N 33°06' E 122°56'313.4
2017-May-18 16:55N 33°09' E 122°56'613.6
2017-May-18 16:30N 33°15' E 122°56'713.8
2017-May-18 15:59N 33°22' E 122°56'913.8
2017-May-18 15:21N 33°31' E 122°56'613.8
2017-May-18 14:56N 33°36' E 122°57'613.8
2017-May-18 14:31N 33°42' E 122°56'1512.4
2017-May-18 13:18N 33°57' E 122°57'413.5
2017-May-18 13:00N 34°01' E 122°57'1513.3
2017-May-18 11:53N 34°16' E 122°57'613.1
2017-May-18 11:26N 34°22' E 122°57'613.0
2017-May-18 10:59N 34°28' E 122°58'1612.9
2017-May-18 09:46N 34°43' E 122°58'512.9
2017-May-18 09:25N 34°48' E 122°58'17612.1
2017-May-17 18:49N 37°40' E 122°07'414.0
2017-May-17 18:30N 37°41' E 122°01'713.8
2017-May-17 18:00N 37°43' E 121°53'713.6
2017-May-17 17:30N 37°45' E 121°45'713.5
2017-May-17 17:00N 37°47' E 121°37'713.5
2017-May-17 16:30N 37°50' E 121°29'713.5
2017-May-17 16:00N 37°53' E 121°21'713.6
2017-May-17 15:30N 37°54' E 121°12'713.7
2017-May-17 15:00N 37°55' E 121°04'1313.5
2017-May-17 14:00N 37°60' E 120°48'713.6
2017-May-17 13:30N 38°01' E 120°39'612.5
2017-May-17 13:00N 38°01' E 120°32'611.2
2017-May-17 12:30N 37°60' E 120°25'611.2
2017-May-17 12:00N 37°56' E 120°20'611.1
2017-May-17 11:30N 37°51' E 120°15'510.6
2017-May-17 11:00N 37°47' E 120°12'510.6
2017-May-17 10:30N 37°41' E 120°12'5 8.5
2017-May-17 09:58N 37°39' E 120°17'2 4.1
2017-May-17 09:30N 37°39' E 120°19'0 0.0
2017-May-17 08:57N 37°39' E 120°19'0 0.0
2017-May-17 08:27N 37°39' E 120°19'0 0.0
2017-May-17 07:51N 37°39' E 120°19'0 0.0
2017-May-17 07:06N 37°39' E 120°19'0 0.0
2017-May-17 06:51N 37°39' E 120°19'0 0.0
2017-May-17 05:39N 37°39' E 120°19'0 0.0
2017-May-17 05:30N 37°39' E 120°19'0 0.0
2017-May-17 05:00N 37°39' E 120°19'0 0.0
2017-May-17 04:27N 37°39' E 120°19'0 0.0
2017-May-17 03:57N 37°39' E 120°19'0 0.0
2017-May-17 03:24N 37°39' E 120°19'0 0.0
2017-May-17 03:00N 37°39' E 120°19'0 0.0
2017-May-17 02:27N 37°39' E 120°19'0 0.0
2017-May-17 02:00N 37°39' E 120°19'0 0.0
2017-May-17 01:30N 37°39' E 120°19'0 0.0
2017-May-17 01:00N 37°39' E 120°19'0 0.0
2017-May-17 00:27N 37°39' E 120°19'0 0.0
2017-May-17 00:00N 37°39' E 120°19'0 0.0
2017-May-16 23:30N 37°39' E 120°19'0 0.0
2017-May-16 23:00N 37°39' E 120°19'0 0.0
2017-May-16 22:27N 37°39' E 120°19'0 0.0
2017-May-16 22:00N 37°39' E 120°19'0 0.0
2017-May-16 21:30N 37°39' E 120°19'0 0.0
2017-May-16 20:57N 37°39' E 120°19'0 0.0
2017-May-16 20:30N 37°39' E 120°19'0 0.0
2017-May-16 20:00N 37°39' E 120°19'0 0.0
2017-May-16 19:27N 37°39' E 120°19'0 0.0
2017-May-16 19:00N 37°39' E 120°19'0 0.0
2017-May-16 18:30N 37°39' E 120°19'0 0.0
2017-May-16 18:00N 37°39' E 120°19'0 0.0
2017-May-16 17:30N 37°39' E 120°19'0 0.0
2017-May-16 17:00N 37°39' E 120°19'0 0.0
2017-May-16 16:27N 37°39' E 120°19'0 0.0
2017-May-16 16:00N 37°39' E 120°19'0 0.0
2017-May-16 15:27N 37°39' E 120°19'0 0.0
2017-May-16 15:00N 37°39' E 120°19'0 0.0
2017-May-16 13:51N 37°39' E 120°19'0 0.0
2017-May-16 13:27N 37°39' E 120°19'0 0.0
2017-May-16 12:45N 37°39' E 120°19'0 0.0
2017-May-16 12:24N 37°39' E 120°19'0 0.0
2017-May-16 11:54N 37°39' E 120°19'0 0.0
2017-May-16 11:30N 37°39' E 120°19'0 0.0
2017-May-16 10:58N 37°39' E 120°19'1 1.4
2017-May-16 10:30N 37°39' E 120°18'3 6.6
2017-May-16 10:01N 37°39' E 120°14'5 9.2
2017-May-16 09:31N 37°42' E 120°11'4 7.8
2017-May-16 09:00N 37°46' E 120°10'0 0.6
2017-May-16 08:23N 37°46' E 120°09'0 0.0
2017-May-16 07:56N 37°46' E 120°09'0 0.1
2017-May-16 07:29N 37°47' E 120°09'0 0.0
2017-May-16 06:56N 37°46' E 120°09'0 0.0
2017-May-16 06:26N 37°46' E 120°09'0 0.0
2017-May-16 05:59N 37°46' E 120°09'0 0.0
2017-May-16 05:29N 37°46' E 120°09'0 0.1
2017-May-16 04:50N 37°46' E 120°09'0 0.1
2017-May-16 04:23N 37°46' E 120°09'0 0.1
2017-May-16 03:59N 37°46' E 120°09'0 0.1
2017-May-16 01:23N 37°47' E 120°10'0 0.0
2017-May-16 00:53N 37°47' E 120°10'0 0.0
2017-May-16 00:26N 37°47' E 120°10'0 0.1
2017-May-15 23:39N 37°47' E 120°10'0 0.7
2017-May-15 23:30N 37°47' E 120°09'2 3.9
2017-May-15 23:00N 37°48' E 120°11'3 6.8
2017-May-15 22:30N 37°51' E 120°14'4 8.7
2017-May-15 22:00N 37°54' E 120°17'5 9.9
2017-May-15 21:30N 37°57' E 120°22'611.5
2017-May-15 21:00N 38°02' E 120°26'510.3
2017-May-15 20:30N 38°04' E 120°32'612.7
2017-May-15 20:00N 38°02' E 120°40'612.7
2017-May-15 19:30N 38°01' E 120°48'612.6
2017-May-15 19:00N 37°60' E 120°56'612.6
2017-May-15 18:30N 37°59' E 121°04'612.4
2017-May-15 18:00N 37°57' E 121°12'612.4
2017-May-15 17:30N 37°56' E 121°19'612.1
2017-May-15 17:00N 37°55' E 121°27'612.2
2017-May-15 16:30N 37°54' E 121°35'612.1
2017-May-15 16:00N 37°53' E 121°42'612.3
2017-May-15 15:30N 37°52' E 121°50'612.2
2017-May-15 15:00N 37°51' E 121°57'1212.4
2017-May-15 14:00N 37°49' E 122°13'30611.4
2017-May-14 11:10N 32°50' E 123°34'311.1
2017-May-14 10:55N 32°47' E 123°34'  
Track history (hours):
 
Tides and Currents Weather Stations Pressure Air Temp Water Temp Dewpoint Dewpoint Depression Visibility Wind Speed Wind Dir Waves Ship Positions

Papa John

Last reported at 2017-May-24 03:50 UTC. Time now 2017-May-25 05:01 UTC.
Position N 31°02' E 122°13'.

Length 190 m; draft 7.2 m.

Type: Ship. MMSI: 538003908.

Date/timePositionNaut miles runAvg speedWind from/ knotsBaromVisibWave heightAir tempDewpointWater temp
2017-May-24 03:50N 31°02' E 122°13'3 9.5
2017-May-24 03:30N 31°03' E 122°09'511.0
2017-May-24 03:00N 31°04' E 122°03'5 9.2
2017-May-24 02:30N 31°06' E 121°58'5 9.3
2017-May-24 02:01N 31°08' E 121°54'5 9.4
2017-May-24 01:30N 31°12' E 121°50'5 9.8
2017-May-24 01:00N 31°15' E 121°46'5 9.7
2017-May-24 00:29N 31°19' E 121°42'4 8.7
2017-May-24 00:00N 31°22' E 121°38'611.0
2017-May-23 23:30N 31°24' E 121°32'510.0
2017-May-23 23:00N 31°27' E 121°28'611.8
2017-May-23 22:30N 31°31' E 121°23'713.3
2017-May-23 22:00N 31°36' E 121°17'3 4.7
2017-May-23 21:27N 31°38' E 121°15'0 0.1
2017-May-23 21:00N 31°38' E 121°15'0 0.0
2017-May-23 20:30N 31°38' E 121°15'0 0.0
2017-May-23 20:00N 31°38' E 121°15'0 0.0
2017-May-23 19:30N 31°38' E 121°15'0 0.0
2017-May-23 19:00N 31°38' E 121°15'0 0.2
2017-May-23 18:30N 31°38' E 121°15'5 9.5
2017-May-23 18:00N 31°41' E 121°11'510.0
2017-May-23 17:30N 31°44' E 121°06'510.4
2017-May-23 16:59N 31°47' E 121°00'5 9.3
2017-May-23 16:29N 31°48' E 120°55'22 9.7
2017-May-23 14:14N 32°01' E 120°34'  
2017-May-19 19:28N 32°02' E 120°30'36 8.6
2017-May-19 15:18N 31°44' E 121°07'310.0
2017-May-19 15:00N 31°42' E 121°09'1010.2
2017-May-19 14:00N 31°35' E 121°18'5 9.9
2017-May-19 13:30N 31°32' E 121°22'510.5
2017-May-19 13:00N 31°28' E 121°27'3 6.5
2017-May-19 12:30N 31°26' E 121°30'3 6.5
2017-May-19 12:00N 31°24' E 121°33'4 8.9
2017-May-19 11:30N 31°22' E 121°37'510.5
2017-May-19 11:00N 31°20' E 121°43'510.2
2017-May-19 10:30N 31°17' E 121°48'510.4
2017-May-19 10:00N 31°16' E 121°54'510.9
2017-May-19 09:30N 31°15' E 122°00'510.6
2017-May-19 09:00N 31°14' E 122°06'611.6
2017-May-19 08:30N 31°10' E 122°12'713.2
2017-May-19 08:00N 31°06' E 122°18'611.2
2017-May-19 07:30N 31°07' E 122°25'4 7.3
2017-May-19 06:57N 31°07' E 122°29'3 6.3
2017-May-19 06:30N 31°07' E 122°33'4 7.1
2017-May-19 05:59N 31°07' E 122°37'11 2.9
2017-May-19 02:18N 31°15' E 122°44'712.3
2017-May-19 01:43N 31°22' E 122°45'512.5
2017-May-19 01:20N 31°27' E 122°45'612.6
2017-May-19 00:52N 31°33' E 122°46'412.2
2017-May-19 00:30N 31°38' E 122°47'1111.9
2017-May-18 23:34N 31°49' E 122°49'111.7
2017-May-18 23:29N 31°50' E 122°49'1211.7
2017-May-18 22:26N 32°02' E 122°51'511.7
2017-May-18 22:00N 32°07' E 122°52'611.6
2017-May-18 21:30N 32°12' E 122°53'611.7
2017-May-18 21:00N 32°18' E 122°53'711.9
2017-May-18 20:26N 32°25' E 122°55'1211.9
2017-May-18 19:27N 32°37' E 122°56'2912.7
2017-May-18 17:09N 33°06' E 122°56'313.4
2017-May-18 16:55N 33°09' E 122°56'613.6
2017-May-18 16:30N 33°15' E 122°56'713.8
2017-May-18 15:59N 33°22' E 122°56'913.8
2017-May-18 15:21N 33°31' E 122°56'613.8
2017-May-18 14:56N 33°36' E 122°57'613.8
2017-May-18 14:31N 33°42' E 122°56'1512.4
2017-May-18 13:18N 33°57' E 122°57'413.5
2017-May-18 13:00N 34°01' E 122°57'1513.3
2017-May-18 11:53N 34°16' E 122°57'613.1
2017-May-18 11:26N 34°22' E 122°57'613.0
2017-May-18 10:59N 34°28' E 122°58'1612.9
2017-May-18 09:46N 34°43' E 122°58'512.9
2017-May-18 09:25N 34°48' E 122°58'17612.1
2017-May-17 18:49N 37°40' E 122°07'414.0
2017-May-17 18:30N 37°41' E 122°01'713.8
2017-May-17 18:00N 37°43' E 121°53'713.6
2017-May-17 17:30N 37°45' E 121°45'713.5
2017-May-17 17:00N 37°47' E 121°37'713.5
2017-May-17 16:30N 37°50' E 121°29'713.5
2017-May-17 16:00N 37°53' E 121°21'713.6
2017-May-17 15:30N 37°54' E 121°12'713.7
2017-May-17 15:00N 37°55' E 121°04'1313.5
2017-May-17 14:00N 37°60' E 120°48'713.6
2017-May-17 13:30N 38°01' E 120°39'612.5
2017-May-17 13:00N 38°01' E 120°32'611.2
2017-May-17 12:30N 37°60' E 120°25'611.2
2017-May-17 12:00N 37°56' E 120°20'611.1
2017-May-17 11:30N 37°51' E 120°15'510.6
2017-May-17 11:00N 37°47' E 120°12'510.6
2017-May-17 10:30N 37°41' E 120°12'5 8.5
2017-May-17 09:58N 37°39' E 120°17'2 4.1
2017-May-17 09:30N 37°39' E 120°19'0 0.0
2017-May-17 08:57N 37°39' E 120°19'0 0.0
2017-May-17 08:27N 37°39' E 120°19'0 0.0
2017-May-17 07:51N 37°39' E 120°19'0 0.0
2017-May-17 07:06N 37°39' E 120°19'0 0.0
2017-May-17 06:51N 37°39' E 120°19'0 0.0
2017-May-17 05:39N 37°39' E 120°19'0 0.0
2017-May-17 05:30N 37°39' E 120°19'0 0.0
2017-May-17 05:00N 37°39' E 120°19'0 0.0
2017-May-17 04:27N 37°39' E 120°19'0 0.0
2017-May-17 03:57N 37°39' E 120°19'0 0.0
2017-May-17 03:24N 37°39' E 120°19'0 0.0
2017-May-17 03:00N 37°39' E 120°19'0 0.0
2017-May-17 02:27N 37°39' E 120°19'0 0.0
2017-May-17 02:00N 37°39' E 120°19'0 0.0
2017-May-17 01:30N 37°39' E 120°19'0 0.0
2017-May-17 01:00N 37°39' E 120°19'0 0.0
2017-May-17 00:27N 37°39' E 120°19'0 0.0
2017-May-17 00:00N 37°39' E 120°19'0 0.0
2017-May-16 23:30N 37°39' E 120°19'0 0.0
2017-May-16 23:00N 37°39' E 120°19'0 0.0
2017-May-16 22:27N 37°39' E 120°19'0 0.0
2017-May-16 22:00N 37°39' E 120°19'0 0.0
2017-May-16 21:30N 37°39' E 120°19'0 0.0
2017-May-16 20:57N 37°39' E 120°19'0 0.0
2017-May-16 20:30N 37°39' E 120°19'0 0.0
2017-May-16 20:00N 37°39' E 120°19'0 0.0
2017-May-16 19:27N 37°39' E 120°19'0 0.0
2017-May-16 19:00N 37°39' E 120°19'0 0.0
2017-May-16 18:30N 37°39' E 120°19'0 0.0
2017-May-16 18:00N 37°39' E 120°19'0 0.0
2017-May-16 17:30N 37°39' E 120°19'0 0.0
2017-May-16 17:00N 37°39' E 120°19'0 0.0
2017-May-16 16:27N 37°39' E 120°19'0 0.0
2017-May-16 16:00N 37°39' E 120°19'0 0.0
2017-May-16 15:27N 37°39' E 120°19'0 0.0
2017-May-16 15:00N 37°39' E 120°19'0 0.0
2017-May-16 13:51N 37°39' E 120°19'0 0.0
2017-May-16 13:27N 37°39' E 120°19'0 0.0
2017-May-16 12:45N 37°39' E 120°19'0 0.0
2017-May-16 12:24N 37°39' E 120°19'0 0.0
2017-May-16 11:54N 37°39' E 120°19'0 0.0
2017-May-16 11:30N 37°39' E 120°19'0 0.0
2017-May-16 10:58N 37°39' E 120°19'1 1.4
2017-May-16 10:30N 37°39' E 120°18'3 6.6
2017-May-16 10:01N 37°39' E 120°14'5 9.2
2017-May-16 09:31N 37°42' E 120°11'4 7.8
2017-May-16 09:00N 37°46' E 120°10'0 0.6
2017-May-16 08:23N 37°46' E 120°09'0 0.0
2017-May-16 07:56N 37°46' E 120°09'0 0.1
2017-May-16 07:29N 37°47' E 120°09'0 0.0
2017-May-16 06:56N 37°46' E 120°09'0 0.0
2017-May-16 06:26N 37°46' E 120°09'0 0.0
2017-May-16 05:59N 37°46' E 120°09'0 0.0
2017-May-16 05:29N 37°46' E 120°09'0 0.1
2017-May-16 04:50N 37°46' E 120°09'0 0.1
2017-May-16 04:23N 37°46' E 120°09'0 0.1
2017-May-16 03:59N 37°46' E 120°09'0 0.1
2017-May-16 01:23N 37°47' E 120°10'0 0.0
2017-May-16 00:53N 37°47' E 120°10'0 0.0
2017-May-16 00:26N 37°47' E 120°10'0 0.1
2017-May-15 23:39N 37°47' E 120°10'0 0.7
2017-May-15 23:30N 37°47' E 120°09'2 3.9
2017-May-15 23:00N 37°48' E 120°11'3 6.8
2017-May-15 22:30N 37°51' E 120°14'4 8.7
2017-May-15 22:00N 37°54' E 120°17'5 9.9
2017-May-15 21:30N 37°57' E 120°22'611.5
2017-May-15 21:00N 38°02' E 120°26'510.3
2017-May-15 20:30N 38°04' E 120°32'612.7
2017-May-15 20:00N 38°02' E 120°40'612.7
2017-May-15 19:30N 38°01' E 120°48'612.6
2017-May-15 19:00N 37°60' E 120°56'612.6
2017-May-15 18:30N 37°59' E 121°04'612.4
2017-May-15 18:00N 37°57' E 121°12'612.4
2017-May-15 17:30N 37°56' E 121°19'612.1
2017-May-15 17:00N 37°55' E 121°27'612.2
2017-May-15 16:30N 37°54' E 121°35'612.1
2017-May-15 16:00N 37°53' E 121°42'612.3
2017-May-15 15:30N 37°52' E 121°50'612.2
2017-May-15 15:00N 37°51' E 121°57'1212.4
2017-May-15 14:00N 37°49' E 122°13'30611.4
2017-May-14 11:10N 32°50' E 123°34'311.1
2017-May-14 10:55N 32°47' E 123°34'  

Dump ship's entire track history